Time;durP1;ratioP1;P1;durP2;ratioP2;P2;SDS_P1;SDS_P2;PMS_P1;PMS_P2;Temp;Humidity;BMP_temperature;BMP_pressure;BME280_temperature;BME280_humidity;BME280_pressure;Samples;Min_cycle;Max_cycle;Signal;HPM_P1;HPM_P2
2022/11/16 00:01:13;;;;;;;3.17;0.73;;;10.00;99.90;;;;;;5091601;28;20044;-43
2022/11/16 00:03:39;;;;;;;5.90;0.65;;;9.90;99.90;;;;;;5091393;28;20378;-44
2022/11/16 00:06:06;;;;;;;3.78;0.60;;;9.80;99.90;;;;;;5091185;28;20024;-54
2022/11/16 00:08:34;;;;;;;4.28;0.80;;;9.80;99.90;;;;;;5091299;28;20058;-46
2022/11/16 00:11:04;;;;;;;3.95;0.95;;;9.70;99.90;;;;;;5091350;28;20022;-47
2022/11/16 00:13:31;;;;;;;;;;;9.60;99.90;;;;;;5091885;28;20487;-50
2022/11/16 00:15:56;;;;;;;4.60;0.68;;;9.50;99.90;;;;;;5091353;28;19943;-49
2022/11/16 00:18:22;;;;;;;7.28;0.65;;;9.50;99.90;;;;;;5091310;28;20062;-50
2022/11/16 00:20:48;;;;;;;4.85;0.65;;;9.50;99.90;;;;;;5090480;28;20388;-46
2022/11/16 00:23:14;;;;;;;8.95;0.95;;;9.40;99.90;;;;;;5066921;28;20067;-49
2022/11/16 00:25:40;;;;;;;6.28;1.10;;;9.30;99.90;;;;;;5076709;28;20048;-46
2022/11/16 00:28:06;;;;;;;4.60;0.85;;;9.30;99.90;;;;;;5072258;28;20041;-50
2022/11/16 00:30:31;;;;;;;8.85;0.90;;;9.30;99.90;;;;;;5091195;28;20028;-47
2022/11/16 00:33:01;;;;;;;14.20;1.08;;;9.40;99.90;;;;;;5091096;28;20036;-49
2022/11/16 00:35:27;;;;;;;15.30;1.65;;;9.50;99.90;;;;;;5090547;28;20055;-54
2022/11/16 00:37:52;;;;;;;7.18;1.05;;;9.70;99.90;;;;;;5090986;28;20032;-49
2022/11/16 00:40:18;;;;;;;9.43;1.30;;;9.80;99.90;;;;;;5072968;28;20107;-55
2022/11/16 00:42:44;;;;;;;7.78;0.80;;;9.80;99.90;;;;;;5085111;28;20435;-57
2022/11/16 00:45:10;;;;;;;6.63;1.02;;;9.80;99.90;;;;;;5082698;28;20021;-54
2022/11/16 00:47:35;;;;;;;5.32;0.77;;;9.80;99.90;;;;;;5090826;28;20111;-58
2022/11/16 00:50:02;;;;;;;5.70;1.00;;;9.80;99.90;;;;;;5072576;28;20024;-52
2022/11/16 00:52:27;;;;;;;4.22;0.90;;;9.80;99.90;;;;;;5088173;28;20028;-54
2022/11/16 00:54:53;;;;;;;6.70;0.80;;;9.80;99.90;;;;;;5078606;28;20035;-55
2022/11/16 00:57:19;;;;;;;3.65;0.80;;;9.80;99.90;;;;;;5091175;28;20024;-55
2022/11/16 00:59:44;;;;;;;5.32;0.60;;;9.70;99.90;;;;;;5090712;28;20024;-45
2022/11/16 01:02:10;;;;;;;6.63;0.77;;;9.60;99.90;;;;;;5090904;28;20095;-58
2022/11/16 01:04:36;;;;;;;4.05;0.60;;;9.60;99.90;;;;;;5090412;28;20020;-47
2022/11/16 01:07:01;;;;;;;4.03;0.85;;;9.60;99.90;;;;;;5090903;28;20392;-45
2022/11/16 01:09:27;;;;;;;4.53;0.60;;;9.60;99.90;;;;;;5090855;28;20380;-52
2022/11/16 01:12:07;;;;;;;5.82;1.02;;;9.70;99.90;;;;;;5090767;28;20535;-52
2022/11/16 01:14:44;;;;;;;2.92;0.50;;;9.70;99.90;;;;;;5091039;28;20055;-49
2022/11/16 01:17:10;;;;;;;7.18;0.75;;;9.70;99.90;;;;;;5090460;28;20082;-49
2022/11/16 01:19:36;;;;;;;6.25;0.70;;;9.80;99.90;;;;;;5075168;28;20098;-50
2022/11/16 01:22:02;;;;;;;6.78;0.70;;;9.80;99.90;;;;;;5083364;28;20028;-44
2022/11/16 01:24:28;;;;;;;5.70;0.70;;;9.90;99.90;;;;;;5094509;28;20036;-47
2022/11/16 01:26:57;;;;;;;2.28;0.43;;;9.90;99.90;;;;;;5094334;28;20028;-53
2022/11/16 01:29:28;;;;;;;4.40;0.40;;;9.90;99.90;;;;;;5094355;28;20024;-50
2022/11/16 01:31:54;;;;;;;6.63;0.90;;;9.80;99.90;;;;;;5094060;28;20527;-49
2022/11/16 01:34:21;;;;;;;4.47;0.90;;;9.70;99.90;;;;;;5093900;28;20476;-51
2022/11/16 01:36:47;;;;;;;4.90;0.70;;;9.60;99.90;;;;;;5094035;28;20410;-48
2022/11/16 01:39:13;;;;;;;2.28;0.95;;;9.50;99.90;;;;;;5094431;28;20028;-50
2022/11/16 01:41:40;;;;;;;4.60;0.50;;;9.50;99.90;;;;;;5094006;28;20392;-42
2022/11/16 01:44:31;;;;;;;5.95;0.80;;;9.40;99.90;;;;;;5079771;28;20380;-52
2022/11/16 01:47:02;;;;;;;5.90;0.73;;;9.30;99.90;;;;;;5093243;28;20429;-44
2022/11/16 01:49:31;;;;;;;8.40;1.88;;;9.20;99.90;;;;;;5093671;28;20110;-45
2022/11/16 01:52:05;;;;;;;6.27;0.77;;;9.10;99.90;;;;;;5093990;28;20511;-45
2022/11/16 01:54:35;;;;;;;7.38;0.68;;;9.00;99.90;;;;;;5093765;28;20027;-51
2022/11/16 01:57:03;;;;;;;5.60;0.98;;;8.90;99.90;;;;;;5093963;28;20365;-45
2022/11/16 01:59:30;;;;;;;5.03;0.70;;;8.90;99.90;;;;;;5093956;28;20015;-51
2022/11/16 02:01:58;;;;;;;7.78;0.82;;;8.80;99.90;;;;;;5093940;28;20088;-45
2022/11/16 02:04:24;;;;;;;2.72;0.70;;;8.90;99.90;;;;;;5093514;28;20476;-51
2022/11/16 02:07:08;;;;;;;8.27;0.82;;;8.80;99.90;;;;;;5093812;28;20032;-50
2022/11/16 02:09:54;;;;;;;5.03;0.90;;;8.80;99.90;;;;;;5093580;28;20492;-45
2022/11/16 02:12:44;;;;;;;9.85;0.95;;;8.90;99.90;;;;;;5093178;28;20048;-47
2022/11/16 02:15:31;;;;;;;6.13;1.40;;;8.90;99.90;;;;;;5079575;28;20043;-54
2022/11/16 02:18:39;;;;;;;8.63;0.90;;;9.10;99.90;;;;;;5082547;28;20020;-44
2022/11/16 02:21:26;;;;;;;5.63;0.90;;;9.10;99.90;;;;;;5080236;28;20033;-45
2022/11/16 02:24:34;;;;;;;3.08;0.70;;;9.10;99.90;;;;;;5081472;28;20036;-46
2022/11/16 02:27:37;;;;;;;8.43;1.08;;;9.10;99.90;;;;;;5083359;28;20036;-48
2022/11/16 02:30:04;;;;;;;7.55;1.05;;;9.10;99.90;;;;;;5092880;28;20038;-50
2022/11/16 02:32:36;;;;;;;5.57;1.13;;;9.00;99.90;;;;;;5093353;28;20043;-44
2022/11/16 02:35:32;;;;;;;5.70;0.90;;;9.00;99.90;;;;;;5092806;28;20040;-52
2022/11/16 02:38:12;;;;;;;4.00;0.60;;;8.90;99.90;;;;;;5093174;28;20372;-45
2022/11/16 02:40:41;;;;;;;5.38;0.95;;;8.80;99.90;;;;;;5079257;28;20032;-48
2022/11/16 02:43:11;;;;;;;2.80;0.80;;;8.80;99.90;;;;;;5083844;28;20028;-46
2022/11/16 02:45:42;;;;;;;2.92;0.88;;;8.70;99.90;;;;;;5062464;28;20024;-50
2022/11/16 02:48:15;;;;;;;5.40;0.82;;;8.60;99.90;;;;;;5092885;28;20028;-42
2022/11/16 02:50:42;;;;;;;4.88;0.77;;;8.60;99.90;;;;;;5092450;28;20024;-48
2022/11/16 02:53:08;;;;;;;7.65;0.90;;;8.60;99.90;;;;;;5092625;28;20127;-42
2022/11/16 02:55:35;;;;;;;5.03;1.20;;;8.50;99.90;;;;;;5092864;28;20107;-45
2022/11/16 02:58:02;;;;;;;4.70;0.80;;;8.50;99.90;;;;;;5092358;28;20031;-41
2022/11/16 03:00:45;;;;;;;6.55;0.93;;;8.50;99.90;;;;;;5092738;28;20380;-46
2022/11/16 03:03:41;;;;;;;7.80;0.90;;;8.50;99.90;;;;;;5079840;28;20020;-48
2022/11/16 03:06:19;;;;;;;7.32;1.33;;;8.50;99.90;;;;;;5087123;28;20081;-48
2022/11/16 03:09:14;;;;;;;10.05;1.13;;;8.40;99.90;;;;;;5092442;28;20107;-53
2022/11/16 03:11:59;;;;;;;6.18;0.80;;;8.50;99.90;;;;;;5075984;28;20050;-47
2022/11/16 03:14:41;;;;;;;8.55;1.20;;;8.60;99.90;;;;;;5091668;28;20047;-42
2022/11/16 03:17:13;;;;;;;11.40;1.48;;;8.80;99.90;;;;;;5084026;28;20487;-49
2022/11/16 03:19:52;;;;;;;11.70;1.25;;;8.90;99.90;;;;;;5077985;28;20400;-54
2022/11/16 03:22:27;;;;;;;9.60;1.58;;;9.00;99.90;;;;;;5083425;28;20472;-47
2022/11/16 03:24:53;;;;;;;8.10;1.13;;;9.20;99.90;;;;;;5091749;28;20515;-46
2022/11/16 03:27:47;;;;;;;17.63;1.98;;;9.30;99.90;;;;;;5092065;28;20024;-45
2022/11/16 03:30:20;;;;;;;12.10;2.05;;;9.50;99.90;;;;;;5075350;28;20036;-45
2022/11/16 03:33:00;;;;;;;13.40;2.65;;;9.80;99.90;;;;;;5091907;28;20043;-48
2022/11/16 03:35:45;;;;;;;15.27;1.92;;;10.00;99.90;;;;;;5079201;28;20044;-47
2022/11/16 03:38:14;;;;;;;11.05;1.63;;;10.00;99.90;;;;;;5091287;28;20055;-51
2022/11/16 03:40:42;;;;;;;18.02;1.77;;;10.10;99.90;;;;;;5091824;28;20024;-45
2022/11/16 03:43:08;;;;;;;12.40;1.75;;;10.10;99.90;;;;;;5082428;28;20121;-43
2022/11/16 03:45:35;;;;;;;12.73;1.50;;;10.10;99.90;;;;;;5086156;28;20051;-54
2022/11/16 03:48:01;;;;;;;17.42;1.83;;;10.10;99.90;;;;;;5091573;28;20016;-51
2022/11/16 03:50:26;;;;;;;8.32;1.27;;;10.20;99.90;;;;;;5073229;28;20031;-46
2022/11/16 03:52:52;;;;;;;11.13;2.65;;;10.30;99.90;;;;;;5091384;28;20756;-49
2022/11/16 03:55:18;;;;;;;10.50;1.88;;;10.20;99.90;;;;;;5091531;28;20102;-48
2022/11/16 03:57:43;;;;;;;14.27;1.67;;;10.20;99.90;;;;;;5091458;28;20024;-45
2022/11/16 04:00:10;;;;;;;14.90;2.58;;;10.20;99.90;;;;;;5091519;28;20028;-45
2022/11/16 04:02:35;;;;;;;14.70;2.28;;;10.20;99.90;;;;;;5091204;28;20038;-47
2022/11/16 04:24:28;;;;;;;11.98;2.22;;;10.00;99.90;;;;;;5091511;28;20039;-58
2022/11/16 04:29:42;;;;;;;13.02;1.52;;;10.10;99.90;;;;;;5091212;28;20128;-48
2022/11/16 04:37:47;;;;;;;8.52;1.48;;;10.20;99.90;;;;;;5091189;28;20039;-54
2022/11/16 04:40:14;;;;;;;13.77;1.65;;;10.30;99.90;;;;;;5091152;28;20016;-53
2022/11/16 04:42:40;;;;;;;18.33;2.67;;;10.40;99.90;;;;;;5085692;28;20024;-48
2022/11/16 04:47:50;;;;;;;15.18;2.53;;;10.40;99.90;;;;;;5090964;28;20030;-46
2022/11/16 04:50:17;;;;;;;10.90;1.67;;;10.40;99.90;;;;;;5089921;28;20123;-47
2022/11/16 04:52:43;;;;;;;11.40;1.45;;;10.40;99.90;;;;;;5090712;28;20032;-48
2022/11/16 04:55:10;;;;;;;9.13;1.90;;;10.40;99.90;;;;;;5090163;28;20051;-45
2022/11/16 04:57:35;;;;;;;11.60;2.22;;;10.40;99.90;;;;;;5079862;28;20062;-48
2022/11/16 05:00:02;;;;;;;13.68;1.67;;;10.40;99.90;;;;;;5082706;28;20478;-42
2022/11/16 05:02:28;;;;;;;10.52;1.58;;;10.40;99.90;;;;;;5077047;28;20749;-47
2022/11/16 05:04:53;;;;;;;10.73;1.73;;;10.30;99.90;;;;;;5082796;28;20146;-42
2022/11/16 05:07:19;;;;;;;11.57;1.63;;;10.30;99.90;;;;;;5079100;28;20028;-47
2022/11/16 05:09:46;;;;;;;12.90;1.88;;;10.10;99.90;;;;;;5087924;28;20102;-47
2022/11/16 05:12:21;;;;;;;12.18;1.67;;;10.10;99.90;;;;;;5090588;28;20040;-45
2022/11/16 05:14:46;;;;;;;9.55;1.50;;;10.10;99.90;;;;;;5087955;28;20488;-47
2022/11/16 05:17:13;;;;;;;4.20;1.20;;;10.00;99.90;;;;;;5078978;28;20101;-51
2022/11/16 05:22:23;;;;;;;6.38;1.05;;;9.70;99.90;;;;;;5090955;28;20047;-47
2022/11/16 05:24:49;;;;;;;16.45;2.05;;;9.60;99.90;;;;;;5089931;28;20523;-55
2022/11/16 05:27:16;;;;;;;17.70;2.30;;;9.70;99.90;;;;;;5090236;28;20024;-49
2022/11/16 05:29:42;;;;;;;17.25;2.33;;;9.80;99.90;;;;;;5090346;28;20069;-45
2022/11/16 05:32:10;;;;;;;11.73;2.13;;;10.00;99.90;;;;;;5084854;28;20127;-45
2022/11/16 05:34:36;;;;;;;16.38;2.13;;;10.10;99.90;;;;;;5078211;28;20109;-44
2022/11/16 05:37:02;;;;;;;17.00;1.70;;;10.20;99.90;;;;;;5078163;28;20023;-42
2022/11/16 05:39:27;;;;;;;14.43;2.25;;;10.30;99.90;;;;;;5068869;28;20086;-42
2022/11/16 05:41:53;;;;;;;14.00;1.90;;;10.40;99.90;;;;;;5085268;28;20024;-50
2022/11/16 05:44:19;;;;;;;13.63;2.40;;;10.40;99.90;;;;;;5072159;28;20012;-49
2022/11/16 05:46:45;;;;;;;10.90;1.58;;;10.40;99.90;;;;;;5090176;28;20043;-47
2022/11/16 05:49:11;;;;;;;10.80;2.10;;;10.50;99.90;;;;;;5090281;28;20126;-48
2022/11/16 05:51:39;;;;;;;11.63;1.00;;;10.50;99.90;;;;;;5071869;28;20077;-43
2022/11/16 05:54:05;;;;;;;9.60;1.33;;;10.30;99.90;;;;;;5089855;28;20107;-49
2022/11/16 05:56:32;;;;;;;9.05;1.15;;;10.00;99.90;;;;;;5072110;28;20446;-54
2022/11/16 05:58:58;;;;;;;9.60;1.10;;;9.80;99.90;;;;;;5090046;28;20085;-46
2022/11/16 06:01:24;;;;;;;7.53;1.17;;;9.70;99.90;;;;;;5091772;28;20028;-45
2022/11/16 06:03:50;;;;;;;6.03;1.20;;;9.60;99.90;;;;;;5075497;28;20035;-48
2022/11/16 06:06:16;;;;;;;9.13;1.17;;;9.50;99.90;;;;;;5088698;28;20536;-49
2022/11/16 06:08:42;;;;;;;9.18;2.13;;;9.40;99.90;;;;;;5066354;28;20115;-52
2022/11/16 06:11:09;;;;;;;9.40;1.73;;;9.40;99.90;;;;;;5093584;28;20055;-46
2022/11/16 06:13:34;;;;;;;10.35;1.63;;;9.40;99.90;;;;;;5075689;28;20024;-44
2022/11/16 06:16:01;;;;;;;11.70;1.40;;;9.40;99.90;;;;;;5093650;28;20410;-47
2022/11/16 06:18:26;;;;;;;12.98;1.92;;;9.40;99.90;;;;;;5093556;28;20035;-44
2022/11/16 06:20:53;;;;;;;13.32;1.65;;;9.40;99.90;;;;;;5093555;28;20414;-47
2022/11/16 06:23:19;;;;;;;10.10;1.25;;;9.40;99.90;;;;;;5092956;28;20111;-41
2022/11/16 06:25:44;;;;;;;13.52;1.38;;;9.50;99.90;;;;;;5093251;28;20039;-42
2022/11/16 06:28:10;;;;;;;11.48;1.83;;;9.60;99.90;;;;;;5093100;28;20016;-42
2022/11/16 06:30:39;;;;;;;8.68;1.60;;;9.60;99.90;;;;;;5093083;28;20024;-42
2022/11/16 06:33:05;;;;;;;6.13;1.10;;;9.70;99.90;;;;;;5087759;28;20040;-42
2022/11/16 06:35:30;;;;;;;9.95;1.33;;;9.80;99.90;;;;;;5092182;28;20516;-42
2022/11/16 06:37:57;;;;;;;7.72;0.93;;;9.80;99.90;;;;;;5092906;28;20063;-41
2022/11/16 06:40:22;;;;;;;14.15;1.70;;;9.80;99.90;;;;;;5093139;28;20016;-42
2022/11/16 06:42:48;;;;;;;12.75;1.70;;;9.80;99.90;;;;;;5092912;28;20051;-46
2022/11/16 06:45:13;;;;;;;11.23;2.53;;;9.80;99.90;;;;;;5092977;28;20024;-47
2022/11/16 06:47:39;;;;;;;7.45;1.17;;;9.80;99.90;;;;;;5092711;28;20364;-50
2022/11/16 06:50:05;;;;;;;8.98;1.75;;;9.80;99.90;;;;;;5092836;28;20024;-44
2022/11/16 06:52:31;;;;;;;9.25;1.13;;;9.80;99.90;;;;;;5092487;28;20135;-45
2022/11/16 06:54:56;;;;;;;7.75;1.10;;;9.80;99.90;;;;;;5092766;28;20159;-42
2022/11/16 06:57:22;;;;;;;9.02;1.05;;;9.70;99.90;;;;;;5092625;28;20757;-47
2022/11/16 06:59:48;;;;;;;9.68;1.10;;;9.70;99.90;;;;;;5092570;28;20024;-47
2022/11/16 07:02:14;;;;;;;10.13;1.08;;;9.60;99.90;;;;;;5087126;28;20031;-45
2022/11/16 07:04:40;;;;;;;6.65;0.93;;;9.60;99.90;;;;;;5092532;28;20028;-51
2022/11/16 07:07:05;;;;;;;5.88;0.90;;;9.50;99.90;;;;;;5080764;28;20039;-55
2022/11/16 07:09:31;;;;;;;8.18;1.05;;;9.50;99.90;;;;;;5089953;28;20019;-49
2022/11/16 07:11:56;;;;;;;7.90;1.08;;;9.50;99.90;;;;;;5091781;28;20088;-50
2022/11/16 07:14:22;;;;;;;10.68;1.35;;;9.50;99.90;;;;;;5091921;28;20039;-48
2022/11/16 07:16:48;;;;;;;10.65;1.30;;;9.60;99.90;;;;;;5092393;28;20081;-42
2022/11/16 07:19:13;;;;;;;11.57;1.52;;;9.60;99.90;;;;;;5092262;28;20041;-49
2022/11/16 07:21:39;;;;;;;11.02;1.55;;;9.60;99.90;;;;;;5092222;28;20032;-47
2022/11/16 07:24:05;;;;;;;15.43;1.63;;;9.60;99.90;;;;;;5092011;28;20016;-51
2022/11/16 07:26:34;;;;;;;14.70;2.05;;;9.70;99.90;;;;;;5092229;28;20024;-47
2022/11/16 07:29:00;;;;;;;14.82;2.75;;;9.90;99.90;;;;;;5091807;28;20488;-46
2022/11/16 07:31:26;;;;;;;13.45;1.40;;;10.00;99.90;;;;;;5088453;28;20062;-43
2022/11/16 07:33:52;;;;;;;11.75;1.77;;;10.10;99.90;;;;;;5078200;28;20041;-46
2022/11/16 07:36:18;;;;;;;16.30;2.22;;;10.10;99.90;;;;;;5089316;28;20105;-45
2022/11/16 07:38:43;;;;;;;9.52;1.05;;;10.10;99.90;;;;;;5088145;28;20127;-42
2022/11/16 07:41:15;;;;;;;10.82;2.03;;;10.10;99.90;;;;;;5090339;28;20366;-45
2022/11/16 07:43:41;;;;;;;10.45;1.45;;;10.10;99.90;;;;;;5084133;28;20056;-44
2022/11/16 07:46:13;;;;;;;11.98;1.60;;;10.10;99.90;;;;;;5082518;28;20060;-47
2022/11/16 07:48:41;;;;;;;13.05;1.38;;;10.00;99.90;;;;;;5078872;28;20046;-45
2022/11/16 07:51:15;;;;;;;8.43;2.08;;;10.00;99.90;;;;;;5083702;28;20078;-48
2022/11/16 07:53:41;;;;;;;14.13;2.00;;;10.00;99.90;;;;;;5085583;28;20147;-45
2022/11/16 07:56:07;;;;;;;11.18;1.70;;;10.00;99.90;;;;;;5085206;28;20017;-43
2022/11/16 07:58:34;;;;;;;14.65;1.40;;;10.10;99.90;;;;;;5083028;28;20123;-46
2022/11/16 08:01:08;;;;;;;16.25;2.85;;;10.10;99.90;;;;;;5085314;28;20035;-48
2022/11/16 08:03:34;;;;;;;13.05;1.45;;;10.10;99.90;;;;;;5084476;28;20678;-52
2022/11/16 08:06:02;;;;;;;12.05;1.45;;;10.20;99.90;;;;;;5085103;28;20479;-41
2022/11/16 08:08:28;;;;;;;13.18;1.52;;;10.10;99.90;;;;;;5078555;28;20397;-48
2022/11/16 08:11:05;;;;;;;11.88;1.25;;;10.10;99.90;;;;;;5090008;28;20024;-45
2022/11/16 08:13:33;;;;;;;14.70;1.60;;;10.00;99.90;;;;;;5090464;28;20550;-48
2022/11/16 08:16:19;;;;;;;6.10;1.02;;;10.00;99.90;;;;;;5078445;28;20024;-45
2022/11/16 08:18:45;;;;;;;12.88;1.67;;;9.90;99.90;;;;;;5082751;28;20530;-49
2022/11/16 08:21:13;;;;;;;11.23;2.05;;;9.90;99.90;;;;;;5084234;28;20106;-48
2022/11/16 08:23:39;;;;;;;20.15;2.10;;;9.90;99.90;;;;;;5089472;28;20099;-47
2022/11/16 08:26:14;;;;;;;12.32;1.50;;;9.80;99.90;;;;;;5077993;28;20032;-49
2022/11/16 08:28:42;;;;;;;7.15;1.42;;;9.80;99.90;;;;;;5084417;28;20017;-50
2022/11/16 08:31:10;;;;;;;13.60;1.65;;;9.80;99.90;;;;;;5083310;28;20447;-49
2022/11/16 08:33:35;;;;;;;17.85;1.85;;;9.80;99.90;;;;;;5083953;28;20059;-53
2022/11/16 08:36:06;;;;;;;10.15;1.65;;;9.80;99.90;;;;;;5076781;28;20083;-47
2022/11/16 08:38:31;;;;;;;11.38;1.30;;;9.80;99.90;;;;;;5088502;28;20498;-48
2022/11/16 08:40:57;;;;;;;9.88;1.33;;;9.80;99.90;;;;;;5090310;28;20028;-49
2022/11/16 08:43:23;;;;;;;21.70;2.97;;;9.80;99.90;;;;;;5090391;28;20012;-48
2022/11/16 08:45:48;;;;;;;14.98;1.48;;;9.80;99.90;;;;;;5072348;28;20024;-56
2022/11/16 08:48:14;;;;;;;20.52;2.15;;;9.80;99.90;;;;;;5090308;28;20032;-54
2022/11/16 08:50:40;;;;;;;12.25;1.45;;;9.90;99.90;;;;;;5090792;28;20477;-50
2022/11/16 08:53:06;;;;;;;9.73;1.23;;;9.90;99.90;;;;;;5072629;28;20573;-57
2022/11/16 08:55:32;;;;;;;12.90;1.63;;;10.00;99.90;;;;;;5090081;28;20193;-48
2022/11/16 08:57:58;;;;;;;10.55;1.42;;;10.00;99.90;;;;;;5090813;28;20385;-50
2022/11/16 09:00:23;;;;;;;9.52;2.75;;;10.00;99.90;;;;;;5082068;28;20036;-49
2022/11/16 09:02:49;;;;;;;8.30;2.35;;;10.10;99.90;;;;;;5090503;28;20016;-58
2022/11/16 09:05:15;;;;;;;14.98;1.63;;;10.20;99.90;;;;;;5090487;28;20050;-48
2022/11/16 09:07:42;;;;;;;8.75;1.52;;;10.20;99.90;;;;;;5071022;28;20101;-54
2022/11/16 09:10:09;;;;;;;14.27;1.48;;;10.20;99.90;;;;;;5090509;28;20067;-50
2022/11/16 09:12:35;;;;;;;7.60;1.30;;;10.30;99.90;;;;;;5090343;28;20144;-42
2022/11/16 09:15:02;;;;;;;14.68;1.90;;;10.30;99.90;;;;;;5090294;28;20111;-45
2022/11/16 09:17:28;;;;;;;7.20;1.00;;;10.30;99.90;;;;;;5089752;28;20392;-43
2022/11/16 09:19:54;;;;;;;5.18;0.80;;;10.30;99.90;;;;;;5090380;28;20020;-53
2022/11/16 09:22:19;;;;;;;5.70;0.82;;;10.30;99.90;;;;;;5090473;28;20027;-46
2022/11/16 09:24:45;;;;;;;8.63;1.25;;;10.30;99.90;;;;;;5090447;28;20028;-47
2022/11/16 09:27:10;;;;;;;10.25;1.17;;;10.30;99.90;;;;;;5090423;28;20103;-53
2022/11/16 09:29:36;;;;;;;10.48;0.93;;;10.40;99.90;;;;;;5089605;28;20060;-50
2022/11/16 09:32:02;;;;;;;5.97;1.08;;;10.50;99.90;;;;;;5086983;28;20020;-52
2022/11/16 09:34:27;;;;;;;9.63;1.40;;;10.70;99.90;;;;;;5089912;28;20107;-49
2022/11/16 09:36:53;;;;;;;5.38;0.80;;;11.20;99.90;;;;;;5092804;28;20055;-55
2022/11/16 09:39:19;;;;;;;3.60;0.85;;;12.70;99.90;;;;;;5075763;28;20048;-48
2022/11/16 09:42:04;;;;;;;5.38;0.80;;;13.80;99.90;;;;;;5093878;28;20012;-51
2022/11/16 09:44:56;;;;;;;8.48;1.25;;;13.80;99.90;;;;;;5094120;28;20025;-43
2022/11/16 09:47:30;;;;;;;6.20;0.90;;;13.90;99.90;;;;;;5093159;28;20027;-48
2022/11/16 09:50:00;;;;;;;4.80;0.65;;;13.80;99.90;;;;;;5093884;28;20411;-52
2022/11/16 09:52:31;;;;;;;;;;;13.30;99.90;;;;;;5087938;28;20078;-46
2022/11/16 09:55:01;;;;;;;2.85;0.70;;;12.80;99.90;;;;;;5093371;28;19951;-54
2022/11/16 09:57:33;;;;;;;4.30;1.08;;;12.30;99.90;;;;;;5079855;28;20039;-49
2022/11/16 10:00:03;;;;;;;4.88;0.80;;;11.80;99.90;;;;;;5088227;28;20024;-53
2022/11/16 10:02:43;;;;;;;5.55;0.90;;;11.40;99.90;;;;;;5093160;28;20036;-53
2022/11/16 10:05:18;;;;;;;4.35;0.98;;;11.10;99.90;;;;;;5093814;28;20023;-53
2022/11/16 10:08:06;;;;;;;11.43;3.05;;;10.90;99.90;;;;;;5092310;28;20567;-52
2022/11/16 10:10:53;;;;;;;3.28;0.70;;;10.70;99.90;;;;;;5040286;28;20037;-51
2022/11/16 10:13:37;;;;;;;4.45;0.75;;;10.50;99.90;;;;;;5081099;28;20067;-45
2022/11/16 10:16:03;;;;;;;5.88;0.70;;;10.30;99.90;;;;;;5093547;28;20028;-53
2022/11/16 10:18:42;;;;;;;4.15;1.15;;;10.20;99.90;;;;;;5093461;28;20024;-52
2022/11/16 10:21:40;;;;;;;7.97;1.08;;;10.10;99.90;;;;;;5091808;28;20027;-55
2022/11/16 10:24:07;;;;;;;5.20;0.80;;;10.10;99.90;;;;;;5087362;28;20488;-42
2022/11/16 10:26:46;;;;;;;6.00;0.90;;;10.30;99.90;;;;;;5091378;28;20020;-51
2022/11/16 10:29:31;;;;;;;4.22;0.77;;;10.50;99.90;;;;;;5090564;28;20447;-48
2022/11/16 10:32:02;;;;;;;5.85;1.02;;;10.60;99.90;;;;;;5079586;28;20020;-49
2022/11/16 10:34:38;;;;;;;6.80;0.95;;;10.70;99.90;;;;;;5092903;28;20081;-48
2022/11/16 10:37:07;;;;;;;7.70;1.00;;;10.90;99.90;;;;;;5093240;28;20153;-46
2022/11/16 10:39:35;;;;;;;6.97;0.80;;;11.00;99.90;;;;;;5093097;28;20438;-51
2022/11/16 10:42:04;;;;;;;7.20;0.90;;;11.20;99.90;;;;;;5092887;28;20020;-49
2022/11/16 10:44:46;;;;;;;9.50;1.15;;;11.40;99.90;;;;;;5092731;28;20531;-54
2022/11/16 10:47:25;;;;;;;6.78;0.85;;;11.70;99.90;;;;;;5090931;28;20111;-47
2022/11/16 10:49:59;;;;;;;5.38;1.00;;;12.80;99.90;;;;;;5092706;28;20027;-48
2022/11/16 10:52:25;;;;;;;6.68;0.88;;;15.50;99.90;;;;;;5082527;28;20036;-48
2022/11/16 10:54:51;;;;;;;7.20;0.95;;;17.60;99.90;;;;;;5085970;28;20040;-51
2022/11/16 10:57:17;;;;;;;5.95;1.63;;;18.80;99.90;;;;;;5091494;28;20091;-50
2022/11/16 10:59:48;;;;;;;5.93;0.85;;;19.70;99.90;;;;;;5088818;28;20081;-51
2022/11/16 11:02:36;;;;;;;4.45;0.90;;;18.50;99.90;;;;;;5092126;28;20032;-52
2022/11/16 11:05:33;;;;;;;8.85;1.83;;;17.60;99.90;;;;;;5092260;28;20023;-50
2022/11/16 11:08:09;;;;;;;6.13;1.08;;;17.30;99.90;;;;;;5080055;28;20036;-46
2022/11/16 11:10:38;;;;;;;7.38;1.25;;;17.10;99.90;;;;;;5083148;28;20021;-44
2022/11/16 11:13:09;;;;;;;6.25;1.02;;;16.70;99.90;;;;;;5090548;28;20028;-47
2022/11/16 11:15:36;;;;;;;6.38;1.00;;;15.70;99.90;;;;;;5091939;28;20052;-47
2022/11/16 11:18:25;;;;;;;9.05;1.40;;;15.00;99.90;;;;;;5091666;28;20020;-53
2022/11/16 11:20:56;;;;;;;6.63;0.95;;;14.50;99.90;;;;;;5082708;28;20057;-45
2022/11/16 11:23:25;;;;;;;3.33;0.85;;;14.30;99.90;;;;;;5088071;28;20495;-48
2022/11/16 11:25:56;;;;;;;5.70;1.05;;;14.40;99.90;;;;;;5070909;28;20558;-49
2022/11/16 11:28:36;;;;;;;10.32;1.02;;;14.60;99.90;;;;;;5091595;28;20025;-45
2022/11/16 11:31:10;;;;;;;7.65;1.70;;;15.00;99.90;;;;;;5091799;28;20027;-46
2022/11/16 11:33:47;;;;;;;6.95;1.20;;;15.10;99.90;;;;;;5088603;28;20031;-47
2022/11/16 11:36:19;;;;;;;5.57;1.10;;;15.30;99.90;;;;;;5086960;28;20135;-47
2022/11/16 11:38:56;;;;;;;6.20;1.10;;;15.70;99.90;;;;;;5083537;28;20055;-48
2022/11/16 11:41:22;;;;;;;6.45;1.30;;;16.50;99.90;;;;;;5074831;28;20016;-53
2022/11/16 11:44:04;;;;;;;5.78;1.20;;;16.90;99.90;;;;;;5091426;28;20385;-52
2022/11/16 11:46:35;;;;;;;6.03;1.10;;;17.50;99.90;;;;;;5090786;28;20361;-49
2022/11/16 11:49:18;;;;;;;4.22;0.82;;;17.40;99.90;;;;;;5088382;28;20028;-48
2022/11/16 11:51:46;;;;;;;9.18;1.15;;;17.40;99.90;;;;;;5074459;28;20472;-45
2022/11/16 11:54:30;;;;;;;8.82;1.45;;;17.40;99.90;;;;;;5091319;28;20078;-57
2022/11/16 11:56:57;;;;;;;11.98;1.45;;;17.70;99.90;;;;;;5091404;28;20023;-51
2022/11/16 11:59:25;;;;;;;8.07;0.93;;;16.50;99.90;;;;;;5091240;28;20028;-50
2022/11/16 12:02:13;;;;;;;11.43;1.70;;;15.30;99.90;;;;;;5091166;28;20043;-57
2022/11/16 12:04:47;;;;;;;6.75;1.30;;;14.40;99.90;;;;;;5091237;28;20028;-57
2022/11/16 12:07:33;;;;;;;9.68;1.60;;;13.70;99.90;;;;;;5083279;28;20016;-53
2022/11/16 12:10:04;;;;;;;11.63;1.55;;;13.10;99.90;;;;;;5084340;28;20034;-54
2022/11/16 12:12:53;;;;;;;8.75;1.50;;;12.60;99.90;;;;;;5085996;28;20040;-49
2022/11/16 12:15:34;;;;;;;8.23;1.15;;;12.20;99.90;;;;;;5088762;28;20028;-47
2022/11/16 12:18:11;;;;;;;4.25;0.98;;;11.60;99.90;;;;;;5090916;28;20027;-54
2022/11/16 12:20:36;;;;;;;15.25;3.00;;;11.30;99.90;;;;;;5090956;28;20024;-60
2022/11/16 12:23:23;;;;;;;12.95;1.98;;;11.10;99.90;;;;;;5090119;28;20038;-54
2022/11/16 12:26:13;;;;;;;6.72;1.02;;;11.00;99.90;;;;;;5090962;28;20035;-59
2022/11/16 12:28:53;;;;;;;5.70;1.10;;;11.00;99.90;;;;;;5090646;28;20376;-48
2022/11/16 12:31:27;;;;;;;9.23;1.63;;;10.90;99.90;;;;;;5090354;28;20028;-50
2022/11/16 12:34:30;;;;;;;8.35;1.60;;;10.90;99.90;;;;;;5090536;28;20488;-45
2022/11/16 12:37:24;;;;;;;9.52;1.40;;;11.40;99.90;;;;;;5087845;28;20535;-51
2022/11/16 12:40:28;;;;;;;9.15;1.33;;;11.80;99.90;;;;;;5090510;28;20039;-59
2022/11/16 12:43:12;;;;;;;8.80;2.33;;;11.60;99.90;;;;;;5075533;28;20448;-50
2022/11/16 12:45:43;;;;;;;7.85;1.15;;;11.50;99.90;;;;;;5081146;28;20028;-45
2022/11/16 12:48:27;;;;;;;9.25;1.55;;;11.30;99.90;;;;;;5090181;28;20050;-44
2022/11/16 12:51:01;;;;;;;8.93;1.20;;;11.20;99.90;;;;;;5089282;28;20102;-45
2022/11/16 12:53:42;;;;;;;6.93;0.93;;;11.20;99.90;;;;;;5088184;28;20051;-42
2022/11/16 12:56:25;;;;;;;12.65;2.97;;;11.20;99.90;;;;;;5081375;28;20028;-42
2022/11/16 12:59:22;;;;;;;9.80;1.20;;;11.30;99.90;;;;;;5086605;28;20023;-53
2022/11/16 13:02:02;;;;;;;6.85;1.90;;;11.50;99.90;;;;;;5089079;28;20024;-47
2022/11/16 13:04:34;;;;;;;9.05;1.25;;;11.80;99.90;;;;;;5090205;28;20073;-52
2022/11/16 13:07:06;;;;;;;6.93;1.00;;;12.00;99.90;;;;;;5085906;28;20035;-47
2022/11/16 13:09:40;;;;;;;8.20;1.20;;;11.90;99.90;;;;;;5080152;28;20020;-46
2022/11/16 13:12:13;;;;;;;8.70;1.08;;;11.90;99.90;;;;;;5093377;28;20536;-45
2022/11/16 13:14:47;;;;;;;5.20;0.77;;;11.80;99.90;;;;;;5093262;28;20403;-44
2022/11/16 13:17:33;;;;;;;8.70;1.75;;;11.80;99.90;;;;;;5094334;28;20020;-46
2022/11/16 13:20:19;;;;;;;5.65;1.05;;;11.70;99.90;;;;;;5084250;28;20043;-46
2022/11/16 13:23:15;;;;;;;5.93;1.30;;;11.60;99.90;;;;;;5094294;28;20076;-47
2022/11/16 13:26:20;;;;;;;9.52;1.33;;;11.50;99.90;;;;;;5094416;28;20036;-49
2022/11/16 13:28:58;;;;;;;13.18;2.58;;;11.40;99.90;;;;;;5087301;28;20380;-43
2022/11/16 13:31:40;;;;;;;11.27;1.90;;;11.30;99.90;;;;;;5092892;28;20496;-44
2022/11/16 13:34:20;;;;;;;11.75;1.67;;;11.30;99.90;;;;;;5092437;28;20125;-50
2022/11/16 13:36:46;;;;;;;19.63;2.20;;;11.30;99.90;;;;;;5090633;28;20055;-45
2022/11/16 13:39:14;;;;;;;13.05;2.58;;;11.30;99.90;;;;;;5073983;28;20032;-49
2022/11/16 13:41:48;;;;;;;14.93;1.85;;;11.30;99.90;;;;;;5092296;28;20031;-48
2022/11/16 13:44:20;;;;;;;13.13;2.10;;;11.20;99.90;;;;;;5092177;28;20104;-46